Terminal Aerodrome Forecast
Issued by NWS

Home | Current Version | Previous Version | Graphics & Text | Print | Product List | Glossary On
Versions: 1 2 3 4 5 6 7 8 9 10 11 12 13 14 15 16 17 18 19 20 21 22 23 24 25 26 27 28
000
FTUS43 KLOT 231125
TAFGYY
TAF
KGYY 231125Z 2312/2412 15010KT P6SM BKN090
     FM231500 15012KT P6SM SCT050 OVC080
     FM232100 15013G20KT P6SM VCSH SCT030 OVC050
     FM240000 16013KT P6SM VCSH SCT025 OVC035
     FM240500 19013KT P6SM SCT025 BKN150 WS020/21050KT=

USA.gov is the U.S. government's official web portal to all federal, state and local government web resources and services.